createdAt,value
2018-07-22T00:00:09.848Z,0.00
2018-07-22T00:01:09.892Z,0.00
2018-07-22T00:02:09.781Z,0.00
2018-07-22T00:03:09.877Z,0.00
2018-07-22T00:04:09.820Z,0.00
2018-07-22T00:05:09.847Z,0.00
2018-07-22T00:06:09.780Z,0.00
2018-07-22T00:07:09.888Z,0.00
2018-07-22T00:08:09.777Z,0.00
2018-07-22T00:09:09.787Z,0.00
2018-07-22T00:10:09.764Z,0.00
2018-07-22T00:11:09.800Z,0.00
2018-07-22T00:12:09.796Z,0.00
2018-07-22T00:13:09.823Z,0.00
2018-07-22T00:14:09.957Z,0.00
2018-07-22T00:15:09.903Z,0.00
2018-07-22T00:16:09.788Z,0.00
2018-07-22T00:17:09.839Z,0.00
2018-07-22T00:18:09.823Z,0.00
2018-07-22T00:19:09.863Z,0.00
2018-07-22T00:20:09.771Z,0.00
2018-07-22T00:21:09.790Z,0.00
2018-07-22T00:22:09.843Z,0.00
2018-07-22T00:23:09.888Z,0.00
2018-07-22T00:24:09.896Z,0.00
2018-07-22T00:25:09.898Z,0.00
2018-07-22T00:26:09.768Z,0.00
2018-07-22T00:27:09.785Z,0.00
2018-07-22T00:28:09.814Z,0.00
2018-07-22T00:29:09.916Z,0.00
2018-07-22T00:30:09.791Z,0.00
2018-07-22T00:31:09.910Z,0.00
2018-07-22T00:32:09.878Z,0.00
2018-07-22T00:33:09.808Z,0.00
2018-07-22T00:34:09.770Z,0.00
2018-07-22T00:35:09.808Z,0.00
2018-07-22T00:36:09.881Z,0.00
2018-07-22T00:37:09.774Z,0.00
2018-07-22T00:38:09.880Z,0.00
2018-07-22T00:39:09.811Z,0.00
2018-07-22T00:40:09.852Z,0.00
2018-07-22T00:41:09.812Z,0.00
2018-07-22T00:42:09.846Z,0.00
2018-07-22T00:43:09.881Z,0.00
2018-07-22T00:44:09.816Z,0.00
2018-07-22T00:45:09.886Z,0.00
2018-07-22T00:46:09.882Z,0.00
2018-07-22T00:47:09.885Z,0.00
2018-07-22T00:48:09.815Z,0.00
2018-07-22T00:49:09.833Z,0.00
2018-07-22T00:50:09.816Z,0.00
2018-07-22T00:51:09.821Z,0.00
2018-07-22T00:52:09.934Z,0.00
2018-07-22T00:53:09.917Z,0.00
2018-07-22T00:54:09.929Z,0.00
2018-07-22T00:55:09.893Z,0.00
2018-07-22T00:56:09.815Z,0.00
2018-07-22T00:57:09.818Z,0.00
2018-07-22T00:58:09.873Z,0.00
2018-07-22T00:59:09.851Z,0.00
2018-07-22T01:00:09.994Z,0.00
2018-07-22T01:01:09.937Z,0.00
2018-07-22T01:02:09.899Z,0.00
2018-07-22T01:03:09.916Z,0.00
2018-07-22T01:04:09.920Z,0.00
2018-07-22T01:05:09.933Z,0.00
2018-07-22T01:06:09.878Z,0.00
2018-07-22T01:07:09.804Z,0.00
2018-07-22T01:08:09.938Z,0.00
2018-07-22T01:09:09.880Z,0.00
2018-07-22T01:10:09.943Z,0.00
2018-07-22T01:11:09.865Z,0.00
2018-07-22T01:12:09.968Z,0.00
2018-07-22T01:13:09.907Z,0.00
2018-07-22T01:14:09.962Z,0.00
2018-07-22T01:15:09.944Z,0.00
2018-07-22T01:16:09.940Z,0.00
2018-07-22T01:17:09.829Z,0.00
2018-07-22T01:18:09.868Z,0.00
2018-07-22T01:19:09.865Z,0.00
2018-07-22T01:20:09.915Z,0.00
2018-07-22T01:21:09.878Z,0.00
2018-07-22T01:22:09.877Z,0.00
2018-07-22T01:23:09.875Z,0.00
2018-07-22T01:24:09.914Z,0.00
2018-07-22T01:25:09.912Z,0.00
2018-07-22T01:26:09.935Z,0.00
2018-07-22T01:27:09.881Z,0.00
2018-07-22T01:28:09.925Z,0.00
2018-07-22T01:29:09.951Z,0.00
2018-07-22T01:30:09.891Z,0.00
2018-07-22T01:31:09.837Z,0.00
2018-07-22T01:32:09.917Z,0.00
2018-07-22T01:33:09.919Z,0.00
2018-07-22T01:34:09.890Z,0.00
2018-07-22T01:35:09.918Z,0.00
2018-07-22T01:36:09.972Z,0.00
2018-07-22T01:37:09.860Z,0.00
2018-07-22T01:38:09.850Z,0.00
2018-07-22T01:39:09.852Z,0.00
2018-07-22T01:40:09.923Z,0.00
2018-07-22T01:41:09.908Z,0.00
2018-07-22T01:42:09.989Z,0.00
2018-07-22T01:43:09.906Z,0.00
2018-07-22T01:44:09.957Z,0.00
2018-07-22T01:45:09.847Z,0.00
2018-07-22T01:46:09.955Z,0.00
2018-07-22T01:47:09.924Z,0.00
2018-07-22T01:48:09.931Z,0.00
2018-07-22T01:49:09.847Z,0.00
2018-07-22T01:50:09.886Z,0.00
2018-07-22T01:51:09.929Z,0.00
2018-07-22T01:52:09.927Z,0.00
2018-07-22T01:53:09.871Z,0.00
2018-07-22T01:54:09.860Z,0.00
2018-07-22T01:55:09.863Z,0.00
2018-07-22T01:56:09.932Z,0.00
2018-07-22T01:57:09.942Z,0.00
2018-07-22T01:58:09.935Z,0.00
2018-07-22T01:59:09.867Z,0.00
2018-07-22T02:00:09.870Z,0.00
2018-07-22T02:01:10.001Z,0.00
2018-07-22T02:02:09.939Z,0.00
2018-07-22T02:03:09.943Z,0.00
2018-07-22T02:04:09.937Z,0.00
2018-07-22T02:05:09.941Z,0.00
2018-07-22T02:06:09.873Z,0.00
2018-07-22T02:07:09.943Z,0.00
2018-07-22T02:08:09.836Z,0.00
2018-07-22T02:09:09.874Z,0.00
2018-07-22T02:10:09.875Z,0.00
2018-07-22T02:11:09.943Z,0.00
2018-07-22T02:12:09.946Z,0.00
2018-07-22T02:13:09.968Z,0.00
2018-07-22T02:14:09.948Z,0.00
2018-07-22T02:15:09.878Z,0.00
2018-07-22T02:16:09.903Z,0.00
2018-07-22T02:17:09.916Z,0.00
2018-07-22T02:18:09.952Z,0.00
2018-07-22T02:19:09.885Z,0.00
2018-07-22T02:20:09.973Z,0.00
2018-07-22T02:21:09.959Z,0.00
2018-07-22T02:22:09.911Z,0.00
2018-07-22T02:23:09.882Z,0.00
2018-07-22T02:24:09.892Z,0.00
2018-07-22T02:25:09.886Z,0.00
2018-07-22T02:26:09.841Z,0.00
2018-07-22T02:27:09.885Z,0.00
2018-07-22T02:28:09.975Z,0.00
2018-07-22T02:29:09.887Z,0.00
2018-07-22T02:30:09.890Z,0.00
2018-07-22T02:31:09.892Z,0.00
2018-07-22T02:32:10.033Z,0.00
2018-07-22T02:33:09.876Z,0.00
2018-07-22T02:34:09.910Z,0.00
2018-07-22T02:35:09.817Z,0.00
2018-07-22T02:36:09.919Z,0.00
2018-07-22T02:37:09.828Z,0.00
2018-07-22T02:38:09.876Z,0.00
2018-07-22T02:39:09.882Z,0.00
2018-07-22T02:40:09.913Z,0.00
2018-07-22T02:41:09.879Z,0.00
2018-07-22T02:42:09.884Z,0.00
2018-07-22T02:43:09.985Z,0.00
2018-07-22T02:44:09.886Z,0.00
2018-07-22T02:45:10.053Z,0.00
2018-07-22T02:46:09.958Z,0.00
2018-07-22T02:47:09.886Z,0.00
2018-07-22T02:48:09.963Z,0.00
2018-07-22T02:49:09.889Z,0.00
2018-07-22T02:50:09.961Z,0.00
2018-07-22T02:51:09.894Z,0.00
2018-07-22T02:52:09.962Z,0.00
2018-07-22T02:53:09.974Z,0.00
2018-07-22T02:54:09.979Z,0.00
2018-07-22T02:55:09.945Z,0.00
2018-07-22T02:56:09.985Z,0.00
2018-07-22T02:57:09.993Z,0.00
2018-07-22T02:58:09.962Z,0.00
2018-07-22T02:59:09.893Z,0.00
2018-07-22T03:00:10.026Z,0.00
2018-07-22T03:01:09.918Z,0.00
2018-07-22T03:02:09.956Z,0.00
2018-07-22T03:03:09.903Z,0.00
2018-07-22T03:04:09.896Z,0.00
2018-07-22T03:05:10.013Z,0.00
2018-07-22T03:06:09.918Z,0.00
2018-07-22T03:07:09.907Z,0.00
2018-07-22T03:08:09.901Z,0.00
2018-07-22T03:09:09.904Z,0.00
2018-07-22T03:10:10.016Z,0.00
2018-07-22T03:11:09.905Z,0.00
2018-07-22T03:12:10.010Z,0.00
2018-07-22T03:13:10.025Z,0.00
2018-07-22T03:14:09.961Z,0.00
2018-07-22T03:15:09.899Z,0.00
2018-07-22T03:16:09.969Z,0.00
2018-07-22T03:17:10.015Z,0.00
2018-07-22T03:18:09.946Z,0.00
2018-07-22T03:19:09.963Z,0.00
2018-07-22T03:20:09.967Z,0.00
2018-07-22T03:21:10.050Z,0.00
2018-07-22T03:22:09.928Z,0.00
2018-07-22T03:23:09.991Z,0.00
2018-07-22T03:24:09.950Z,0.00
2018-07-22T03:25:09.919Z,0.00
2018-07-22T03:26:09.999Z,0.00
2018-07-22T03:27:10.042Z,0.00
2018-07-22T03:28:09.977Z,0.00
2018-07-22T03:29:09.932Z,0.00
2018-07-22T03:30:10.003Z,0.00
2018-07-22T03:31:09.972Z,0.00
2018-07-22T03:32:10.040Z,0.00
2018-07-22T03:33:09.894Z,0.00
2018-07-22T03:34:09.886Z,0.00
2018-07-22T03:35:09.918Z,0.00
2018-07-22T03:36:09.919Z,0.00
2018-07-22T03:37:09.919Z,0.00
2018-07-22T03:38:09.923Z,0.00
2018-07-22T03:39:09.893Z,0.00
2018-07-22T03:40:09.865Z,0.00
2018-07-22T03:41:09.922Z,0.00
2018-07-22T03:42:09.973Z,0.00
2018-07-22T03:43:09.907Z,0.00
2018-07-22T03:44:09.866Z,0.00
2018-07-22T03:45:09.905Z,0.00
2018-07-22T03:46:09.950Z,0.00
2018-07-22T03:47:09.952Z,0.00
2018-07-22T03:48:09.997Z,0.00
2018-07-22T03:49:09.951Z,0.00
2018-07-22T03:50:09.950Z,0.00
2018-07-22T03:51:09.890Z,0.00
2018-07-22T03:52:09.909Z,0.00
2018-07-22T03:53:10.110Z,0.00
2018-07-22T03:54:10.016Z,0.00
2018-07-22T03:55:10.021Z,0.00
2018-07-22T03:56:09.944Z,0.00
2018-07-22T03:57:09.975Z,0.00
2018-07-22T03:58:10.025Z,0.00
2018-07-22T03:59:09.946Z,1.00
2018-07-22T04:00:09.913Z,1.00
2018-07-22T04:01:09.951Z,1.00
2018-07-22T04:02:10.018Z,1.00
2018-07-22T04:03:10.023Z,1.00
2018-07-22T04:04:10.026Z,1.00
2018-07-22T04:05:09.941Z,1.00
2018-07-22T04:06:10.023Z,1.00
2018-07-22T04:07:10.021Z,1.00
2018-07-22T04:08:10.000Z,1.00
2018-07-22T04:09:10.167Z,1.00
2018-07-22T04:10:10.048Z,1.00
2018-07-22T04:11:09.962Z,1.00
2018-07-22T04:12:10.040Z,1.00
2018-07-22T04:13:09.942Z,1.00
2018-07-22T04:14:09.913Z,1.00
2018-07-22T04:15:09.978Z,1.00
2018-07-22T04:16:09.970Z,1.00
2018-07-22T04:17:09.971Z,1.00
2018-07-22T04:18:09.934Z,1.00
2018-07-22T04:19:09.886Z,1.00
2018-07-22T04:20:09.975Z,1.00
2018-07-22T04:21:09.975Z,2.00
2018-07-22T04:22:09.934Z,2.00
2018-07-22T04:23:09.948Z,2.00
2018-07-22T04:24:09.955Z,2.00
2018-07-22T04:25:10.023Z,2.00
2018-07-22T04:26:09.955Z,2.00
2018-07-22T04:27:10.028Z,2.00
2018-07-22T04:28:09.972Z,2.00
2018-07-22T04:29:09.906Z,2.00
2018-07-22T04:30:09.958Z,2.00
2018-07-22T04:31:10.031Z,2.00
2018-07-22T04:32:10.029Z,2.00
2018-07-22T04:33:09.938Z,2.00
2018-07-22T04:34:10.040Z,2.00
2018-07-22T04:35:10.066Z,2.00
2018-07-22T04:36:09.960Z,2.00
2018-07-22T04:37:10.020Z,2.00
2018-07-22T04:38:10.023Z,3.00
2018-07-22T04:39:10.071Z,3.00
2018-07-22T04:40:10.072Z,3.00
2018-07-22T04:41:10.011Z,3.00
2018-07-22T04:42:10.079Z,3.00
2018-07-22T04:43:09.907Z,3.00
2018-07-22T04:44:09.994Z,3.00
2018-07-22T04:45:09.901Z,3.00
2018-07-22T04:46:09.991Z,3.00
2018-07-22T04:47:09.966Z,3.00
2018-07-22T04:48:09.992Z,3.00
2018-07-22T04:49:09.951Z,3.00
2018-07-22T04:50:09.928Z,3.00
2018-07-22T04:51:09.998Z,3.00
2018-07-22T04:52:10.005Z,4.00
2018-07-22T04:53:10.053Z,4.00
2018-07-22T04:54:09.981Z,4.00
2018-07-22T04:55:10.052Z,4.00
2018-07-22T04:56:09.986Z,4.00
2018-07-22T04:57:10.052Z,4.00
2018-07-22T04:58:09.984Z,4.00
2018-07-22T04:59:09.986Z,4.00
2018-07-22T05:00:10.056Z,4.00
2018-07-22T05:01:10.059Z,4.00
2018-07-22T05:02:09.988Z,4.00
2018-07-22T05:03:10.038Z,4.00
2018-07-22T05:04:10.036Z,4.00
2018-07-22T05:05:10.014Z,4.00
2018-07-22T05:06:10.062Z,4.00
2018-07-22T05:07:10.061Z,5.00
2018-07-22T05:08:10.094Z,5.00
2018-07-22T05:09:10.028Z,5.00
2018-07-22T05:10:10.072Z,5.00
2018-07-22T05:11:10.095Z,5.00
2018-07-22T05:12:10.039Z,5.00
2018-07-22T05:13:10.067Z,5.00
2018-07-22T05:14:10.003Z,5.00
2018-07-22T05:15:10.103Z,5.00
2018-07-22T05:16:10.074Z,5.00
2018-07-22T05:17:10.036Z,6.00
2018-07-22T05:18:10.099Z,6.00
2018-07-22T05:19:10.087Z,6.00
2018-07-22T05:20:10.023Z,6.00
2018-07-22T05:21:10.035Z,6.00
2018-07-22T05:22:10.105Z,6.00
2018-07-22T05:23:10.051Z,6.00
2018-07-22T05:24:10.071Z,7.00
2018-07-22T05:25:10.043Z,7.00
2018-07-22T05:26:10.061Z,7.00
2018-07-22T05:27:10.080Z,7.00
2018-07-22T05:28:10.094Z,7.00
2018-07-22T05:29:10.076Z,7.00
2018-07-22T05:30:10.012Z,7.00
2018-07-22T05:31:10.077Z,8.00
2018-07-22T05:32:10.049Z,8.00
2018-07-22T05:33:10.076Z,8.00
2018-07-22T05:34:10.250Z,8.00
2018-07-22T05:35:10.081Z,8.00
2018-07-22T05:36:10.083Z,8.00
2018-07-22T05:37:10.078Z,8.00
2018-07-22T05:38:10.018Z,8.00
2018-07-22T05:39:10.021Z,8.00
2018-07-22T05:40:10.017Z,9.00
2018-07-22T05:41:10.081Z,9.00
2018-07-22T05:42:10.063Z,9.00
2018-07-22T05:43:10.117Z,9.00
2018-07-22T05:44:10.110Z,9.00
2018-07-22T05:45:10.086Z,9.00
2018-07-22T05:46:10.053Z,9.00
2018-07-22T05:47:10.027Z,9.00
2018-07-22T05:48:10.112Z,9.00
2018-07-22T05:49:10.065Z,9.00
2018-07-22T05:50:10.080Z,9.00
2018-07-22T05:51:10.012Z,9.00
2018-07-22T05:52:10.031Z,9.00
2018-07-22T05:53:10.057Z,9.00
2018-07-22T05:54:10.119Z,9.00
2018-07-22T05:55:10.017Z,9.00
2018-07-22T05:56:10.095Z,9.00
2018-07-22T05:57:10.091Z,9.00
2018-07-22T05:58:10.057Z,10.00
2018-07-22T05:59:10.054Z,10.00
2018-07-22T06:00:10.111Z,10.00
2018-07-22T06:01:10.055Z,10.00
2018-07-22T06:02:10.124Z,11.00
2018-07-22T06:03:10.137Z,11.00
2018-07-22T06:04:10.093Z,11.00
2018-07-22T06:05:10.121Z,12.00
2018-07-22T06:06:10.070Z,12.00
2018-07-22T06:07:10.122Z,12.00
2018-07-22T06:08:10.041Z,13.00
2018-07-22T06:09:10.147Z,13.00
2018-07-22T06:10:10.130Z,14.00
2018-07-22T06:11:10.057Z,14.00
2018-07-22T06:12:10.167Z,15.00
2018-07-22T06:13:10.010Z,15.00
2018-07-22T06:14:10.081Z,16.00
2018-07-22T06:15:10.005Z,16.00
2018-07-22T06:16:10.127Z,16.00
2018-07-22T06:17:10.070Z,18.00
2018-07-22T06:18:10.086Z,18.00
2018-07-22T06:19:10.134Z,18.00
2018-07-22T06:20:10.150Z,18.00
2018-07-22T06:21:10.047Z,18.00
2018-07-22T06:22:10.069Z,18.00
2018-07-22T06:23:10.135Z,18.00
2018-07-22T06:24:10.111Z,18.00
2018-07-22T06:25:10.014Z,18.00
2018-07-22T06:26:10.022Z,18.00
2018-07-22T06:27:10.140Z,18.00
2018-07-22T06:28:10.135Z,18.00
2018-07-22T06:29:10.137Z,21.00
2018-07-22T06:30:10.094Z,21.00
2018-07-22T06:31:10.131Z,18.00
2018-07-22T06:32:10.134Z,17.00
2018-07-22T06:33:10.091Z,17.00
2018-07-22T06:34:10.102Z,17.00
2018-07-22T06:35:10.156Z,17.00
2018-07-22T06:36:10.086Z,17.00
2018-07-22T06:37:10.159Z,17.00
2018-07-22T06:38:10.127Z,17.00
2018-07-22T06:39:10.082Z,17.00
2018-07-22T06:40:10.083Z,18.00
2018-07-22T06:41:10.046Z,21.00
2018-07-22T06:42:10.078Z,20.00
2018-07-22T06:43:10.135Z,19.00
2018-07-22T06:44:10.092Z,19.00
2018-07-22T06:45:10.106Z,19.00
2018-07-22T06:46:10.147Z,20.00
2018-07-22T06:47:10.039Z,20.00
2018-07-22T06:48:10.100Z,20.00
2018-07-22T06:49:10.132Z,24.00
2018-07-22T06:50:10.029Z,29.00
2018-07-22T06:51:10.134Z,29.00
2018-07-22T06:52:10.145Z,25.00
2018-07-22T06:53:10.070Z,27.00
2018-07-22T06:54:10.098Z,28.00
2018-07-22T06:55:10.093Z,29.00
2018-07-22T06:56:10.094Z,29.00
2018-07-22T06:57:10.099Z,29.00
2018-07-22T06:58:10.174Z,29.00
2018-07-22T06:59:10.100Z,29.00
2018-07-22T07:00:10.181Z,29.00
2018-07-22T07:01:10.107Z,30.00
2018-07-22T07:02:10.172Z,30.00
2018-07-22T07:03:10.007Z,30.00
2018-07-22T07:04:10.071Z,30.00
2018-07-22T07:05:10.131Z,31.00
2018-07-22T07:06:10.046Z,31.00
2018-07-22T07:07:10.128Z,31.00
2018-07-22T07:08:10.134Z,31.00
2018-07-22T07:09:10.014Z,30.00
2018-07-22T07:10:10.138Z,30.00
2018-07-22T07:11:10.062Z,29.00
2018-07-22T07:12:10.132Z,30.00
2018-07-22T07:13:10.093Z,30.00
2018-07-22T07:14:10.076Z,30.00
2018-07-22T07:15:10.146Z,30.00
2018-07-22T07:16:10.079Z,30.00
2018-07-22T07:17:10.146Z,31.00
2018-07-22T07:18:10.083Z,31.00
2018-07-22T07:19:10.148Z,31.00
2018-07-22T07:20:10.086Z,31.00
2018-07-22T07:21:10.088Z,32.00
2018-07-22T07:22:10.218Z,33.00
2018-07-22T07:23:10.177Z,34.00
2018-07-22T07:24:10.181Z,34.00
2018-07-22T07:25:10.181Z,35.00
2018-07-22T07:26:10.184Z,34.00
2018-07-22T07:27:10.119Z,35.00
2018-07-22T07:28:10.134Z,35.00
2018-07-22T07:29:10.135Z,30.00
2018-07-22T07:30:10.186Z,29.00
2018-07-22T07:31:10.122Z,32.00
2018-07-22T07:32:10.113Z,33.00
2018-07-22T07:33:10.115Z,37.00
2018-07-22T07:34:10.120Z,38.00
2018-07-22T07:35:10.057Z,38.00
2018-07-22T07:36:10.098Z,38.00
2018-07-22T07:37:10.189Z,37.00
2018-07-22T07:38:10.180Z,28.00
2018-07-22T07:39:10.144Z,32.00
2018-07-22T07:40:10.101Z,29.00
2018-07-22T07:41:10.092Z,34.00
2018-07-22T07:42:10.067Z,38.00
2018-07-22T07:43:10.101Z,38.00
2018-07-22T07:44:10.166Z,37.00
2018-07-22T07:45:10.100Z,34.00
2018-07-22T07:46:10.167Z,32.00
2018-07-22T07:47:10.103Z,28.00
2018-07-22T07:48:10.167Z,26.00
2018-07-22T07:49:10.104Z,26.00
2018-07-22T07:50:10.106Z,25.00
2018-07-22T07:51:10.107Z,25.00
2018-07-22T07:52:10.170Z,25.00
2018-07-22T07:53:10.109Z,24.00
2018-07-22T07:54:10.171Z,24.00
2018-07-22T07:55:10.103Z,24.00
2018-07-22T07:56:10.106Z,24.00
2018-07-22T07:57:10.107Z,24.00
2018-07-22T07:58:10.176Z,24.00
2018-07-22T07:59:10.145Z,24.00
2018-07-22T08:00:10.178Z,24.00
2018-07-22T08:01:10.111Z,24.00
2018-07-22T08:02:10.176Z,25.00
2018-07-22T08:03:10.193Z,27.00
2018-07-22T08:04:10.208Z,25.00
2018-07-22T08:05:10.207Z,24.00
2018-07-22T08:06:10.213Z,24.00
2018-07-22T08:07:10.315Z,25.00
2018-07-22T08:08:10.217Z,25.00
2018-07-22T08:09:10.186Z,25.00
2018-07-22T08:10:10.184Z,25.00
2018-07-22T08:11:10.185Z,25.00
2018-07-22T08:12:10.167Z,24.00
2018-07-22T08:13:10.127Z,24.00
2018-07-22T08:14:10.187Z,23.00
2018-07-22T08:15:10.190Z,23.00
2018-07-22T08:16:10.167Z,22.00
2018-07-22T08:17:10.188Z,22.00
2018-07-22T08:18:10.195Z,23.00
2018-07-22T08:19:10.204Z,24.00
2018-07-22T08:20:10.125Z,21.00
2018-07-22T08:21:10.192Z,20.00
2018-07-22T08:22:10.140Z,20.00
2018-07-22T08:23:10.128Z,21.00
2018-07-22T08:24:10.128Z,21.00
2018-07-22T08:25:10.129Z,21.00
2018-07-22T08:26:10.139Z,22.00
2018-07-22T08:27:10.199Z,22.00
2018-07-22T08:28:10.198Z,23.00
2018-07-22T08:29:10.204Z,24.00
2018-07-22T08:30:10.267Z,26.00
2018-07-22T08:31:10.133Z,29.00
2018-07-22T08:32:10.197Z,38.00
2018-07-22T08:33:10.139Z,41.00
2018-07-22T08:34:10.089Z,33.00
2018-07-22T08:35:10.133Z,40.00
2018-07-22T08:36:10.152Z,39.00
2018-07-22T08:37:10.180Z,39.00
2018-07-22T08:38:10.072Z,40.00
2018-07-22T08:39:10.137Z,39.00
2018-07-22T08:40:10.097Z,39.00
2018-07-22T08:41:10.250Z,40.00
2018-07-22T08:42:10.093Z,40.00
2018-07-22T08:43:10.100Z,41.00
2018-07-22T08:44:10.180Z,41.00
2018-07-22T08:45:10.168Z,41.00
2018-07-22T08:46:10.164Z,41.00
2018-07-22T08:47:10.229Z,41.00
2018-07-22T08:48:10.170Z,40.00
2018-07-22T08:49:10.182Z,40.00
2018-07-22T08:50:10.193Z,41.00
2018-07-22T08:51:10.137Z,41.00
2018-07-22T08:52:10.184Z,41.00
2018-07-22T08:53:10.229Z,41.00
2018-07-22T08:54:10.148Z,41.00
2018-07-22T08:55:10.220Z,41.00
2018-07-22T08:56:10.151Z,41.00
2018-07-22T08:57:10.213Z,41.00
2018-07-22T08:58:10.151Z,40.00
2018-07-22T08:59:10.218Z,40.00
2018-07-22T09:00:10.158Z,40.00
2018-07-22T09:01:10.222Z,40.00
2018-07-22T09:02:10.156Z,40.00
2018-07-22T09:03:10.162Z,40.00
2018-07-22T09:04:10.223Z,40.00
2018-07-22T09:05:10.155Z,41.00
2018-07-22T09:06:10.230Z,40.00
2018-07-22T09:07:10.157Z,41.00
2018-07-22T09:08:10.203Z,41.00
2018-07-22T09:09:10.230Z,42.00
2018-07-22T09:10:10.160Z,42.00
2018-07-22T09:11:10.159Z,42.00
2018-07-22T09:12:10.163Z,42.00
2018-07-22T09:13:10.232Z,42.00
2018-07-22T09:14:10.173Z,41.00
2018-07-22T09:15:10.260Z,34.00
2018-07-22T09:16:10.232Z,43.00
2018-07-22T09:17:10.160Z,43.00
2018-07-22T09:18:10.253Z,37.00
2018-07-22T09:19:10.234Z,43.00
2018-07-22T09:20:10.155Z,44.00
2018-07-22T09:21:10.135Z,43.00
2018-07-22T09:22:10.164Z,44.00
2018-07-22T09:23:10.236Z,42.00
2018-07-22T09:24:10.172Z,27.00
2018-07-22T09:25:10.188Z,44.00
2018-07-22T09:26:10.264Z,45.00
2018-07-22T09:27:10.283Z,44.00
2018-07-22T09:28:10.237Z,45.00
2018-07-22T09:29:10.197Z,35.00
2018-07-22T09:30:10.260Z,45.00
2018-07-22T09:31:10.177Z,45.00
2018-07-22T09:32:10.239Z,45.00
2018-07-22T09:33:10.141Z,37.00
2018-07-22T09:34:10.270Z,26.00
2018-07-22T09:35:10.217Z,24.00
2018-07-22T09:36:10.389Z,24.00
2018-07-22T09:37:10.150Z,25.00
2018-07-22T09:38:10.277Z,44.00
2018-07-22T09:39:10.341Z,46.00
2018-07-22T09:40:10.246Z,45.00
2018-07-22T09:41:10.202Z,45.00
2018-07-22T09:42:10.292Z,46.00
2018-07-22T09:43:10.154Z,47.00
2018-07-22T09:44:10.184Z,48.00
2018-07-22T09:45:10.181Z,48.00
2018-07-22T09:46:10.181Z,47.00
2018-07-22T09:47:10.249Z,47.00
2018-07-22T09:48:10.302Z,46.00
2018-07-22T09:49:10.248Z,25.00
2018-07-22T09:50:10.194Z,23.00
2018-07-22T09:51:10.245Z,23.00
2018-07-22T09:52:10.185Z,22.00
2018-07-22T09:53:10.190Z,22.00
2018-07-22T09:54:10.213Z,22.00
2018-07-22T09:55:10.195Z,22.00
2018-07-22T09:56:10.287Z,22.00
2018-07-22T09:57:10.267Z,22.00
2018-07-22T09:58:10.228Z,22.00
2018-07-22T09:59:10.265Z,22.00
2018-07-22T10:00:10.286Z,23.00
2018-07-22T10:01:10.159Z,23.00
2018-07-22T10:02:10.260Z,23.00
2018-07-22T10:03:10.262Z,23.00
2018-07-22T10:04:10.252Z,23.00
2018-07-22T10:05:10.250Z,23.00
2018-07-22T10:06:10.251Z,25.00
2018-07-22T10:07:10.172Z,24.00
2018-07-22T10:08:10.147Z,24.00
2018-07-22T10:09:10.260Z,24.00
2018-07-22T10:10:10.262Z,24.00
2018-07-22T10:11:10.332Z,24.00
2018-07-22T10:12:10.192Z,24.00
2018-07-22T10:13:10.260Z,24.00
2018-07-22T10:14:10.166Z,25.00
2018-07-22T10:15:10.175Z,25.00
2018-07-22T10:16:10.217Z,26.00
2018-07-22T10:17:10.173Z,25.00
2018-07-22T10:18:10.167Z,25.00
2018-07-22T10:19:10.220Z,25.00
2018-07-22T10:20:10.180Z,25.00
2018-07-22T10:21:10.220Z,26.00
2018-07-22T10:22:10.190Z,26.00
2018-07-22T10:23:10.172Z,27.00
2018-07-22T10:24:10.181Z,27.00
2018-07-22T10:25:10.266Z,26.00
2018-07-22T10:26:10.230Z,26.00
2018-07-22T10:27:10.265Z,26.00
2018-07-22T10:28:10.271Z,26.00
2018-07-22T10:29:10.167Z,27.00
2018-07-22T10:30:10.230Z,28.00
2018-07-22T10:31:10.269Z,48.00
2018-07-22T10:32:10.284Z,49.00
2018-07-22T10:33:10.186Z,49.00
2018-07-22T10:34:10.184Z,51.00
2018-07-22T10:35:10.230Z,53.00
2018-07-22T10:36:10.229Z,55.00
2018-07-22T10:37:10.230Z,55.00
2018-07-22T10:38:10.274Z,55.00
2018-07-22T10:39:10.282Z,55.00
2018-07-22T10:40:10.224Z,56.00
2018-07-22T10:41:10.241Z,55.00
2018-07-22T10:42:10.192Z,50.00
2018-07-22T10:43:10.304Z,48.00
2018-07-22T10:44:10.162Z,31.00
2018-07-22T10:45:10.224Z,29.00
2018-07-22T10:46:10.198Z,28.00
2018-07-22T10:47:10.285Z,29.00
2018-07-22T10:48:10.230Z,42.00
2018-07-22T10:49:10.166Z,47.00
2018-07-22T10:50:10.300Z,27.00
2018-07-22T10:51:10.227Z,25.00
2018-07-22T10:52:10.166Z,24.00
2018-07-22T10:53:10.250Z,23.00
2018-07-22T10:54:10.270Z,22.00
2018-07-22T10:55:10.317Z,22.00
2018-07-22T10:56:10.332Z,22.00
2018-07-22T10:57:10.298Z,22.00
2018-07-22T10:58:10.202Z,22.00
2018-07-22T10:59:10.323Z,22.00
2018-07-22T11:00:10.220Z,23.00
2018-07-22T11:01:10.256Z,23.00
2018-07-22T11:02:10.275Z,27.00
2018-07-22T11:03:10.290Z,22.00
2018-07-22T11:04:10.270Z,21.00
2018-07-22T11:05:10.324Z,20.00
2018-07-22T11:06:10.259Z,19.00
2018-07-22T11:07:10.316Z,19.00
2018-07-22T11:08:10.284Z,18.00
2018-07-22T11:09:10.343Z,18.00
2018-07-22T11:10:10.235Z,18.00
2018-07-22T11:11:10.265Z,18.00
2018-07-22T11:12:10.346Z,18.00
2018-07-22T11:13:10.273Z,18.00
2018-07-22T11:14:10.336Z,18.00
2018-07-22T11:15:10.230Z,19.00
2018-07-22T11:16:10.208Z,19.00
2018-07-22T11:17:10.337Z,20.00
2018-07-22T11:18:10.231Z,21.00
2018-07-22T11:19:10.269Z,21.00
2018-07-22T11:20:10.277Z,32.00
2018-07-22T11:21:10.331Z,28.00
2018-07-22T11:22:10.222Z,36.00
2018-07-22T11:23:10.273Z,23.00
2018-07-22T11:24:10.253Z,23.00
2018-07-22T11:25:10.317Z,23.00
2018-07-22T11:26:10.280Z,29.00
2018-07-22T11:27:10.266Z,28.00
2018-07-22T11:28:10.254Z,33.00
2018-07-22T11:29:10.363Z,38.00
2018-07-22T11:30:10.319Z,40.00
2018-07-22T11:31:10.322Z,26.00
2018-07-22T11:32:10.321Z,27.00
2018-07-22T11:33:10.259Z,28.00
2018-07-22T11:34:10.386Z,28.00
2018-07-22T11:35:10.288Z,29.00
2018-07-22T11:36:10.272Z,46.00
2018-07-22T11:37:10.360Z,47.00
2018-07-22T11:38:10.369Z,27.00
2018-07-22T11:39:10.363Z,27.00
2018-07-22T11:40:10.329Z,26.00
2018-07-22T11:41:10.266Z,26.00
2018-07-22T11:42:10.329Z,26.00
2018-07-22T11:43:10.357Z,26.00
2018-07-22T11:44:10.295Z,26.00
2018-07-22T11:45:10.306Z,26.00
2018-07-22T11:46:10.352Z,27.00
2018-07-22T11:47:10.303Z,24.00
2018-07-22T11:48:10.303Z,24.00
2018-07-22T11:49:10.306Z,23.00
2018-07-22T11:50:10.256Z,22.00
2018-07-22T11:51:10.369Z,20.00
2018-07-22T11:52:10.307Z,19.00
2018-07-22T11:53:10.294Z,19.00
2018-07-22T11:54:10.337Z,19.00
2018-07-22T11:55:10.270Z,19.00
2018-07-22T11:56:10.339Z,31.00
2018-07-22T11:57:10.336Z,18.00
2018-07-22T11:58:10.340Z,18.00
2018-07-22T11:59:10.344Z,17.00
2018-07-22T12:00:10.280Z,18.00
2018-07-22T12:01:10.277Z,28.00
2018-07-22T12:02:10.279Z,16.00
2018-07-22T12:03:10.351Z,15.00
2018-07-22T12:04:10.321Z,14.00
2018-07-22T12:05:10.369Z,14.00
2018-07-22T12:06:10.306Z,14.00
2018-07-22T12:07:10.345Z,14.00
2018-07-22T12:08:10.316Z,15.00
2018-07-22T12:09:10.364Z,16.00
2018-07-22T12:10:10.379Z,16.00
2018-07-22T12:11:10.298Z,16.00
2018-07-22T12:12:10.328Z,15.00
2018-07-22T12:13:10.377Z,14.00
2018-07-22T12:14:10.347Z,14.00
2018-07-22T12:15:10.352Z,13.00
2018-07-22T12:16:10.349Z,12.00
2018-07-22T12:17:10.350Z,11.00
2018-07-22T12:18:10.287Z,10.00
2018-07-22T12:19:10.289Z,9.00
2018-07-22T12:20:10.351Z,8.00
2018-07-22T12:21:10.298Z,8.00
2018-07-22T12:22:10.361Z,8.00
2018-07-22T12:23:10.297Z,8.00
2018-07-22T12:24:10.358Z,7.00
2018-07-22T12:25:10.293Z,7.00
2018-07-22T12:26:10.356Z,7.00
2018-07-22T12:27:10.302Z,7.00
2018-07-22T12:28:10.489Z,7.00
2018-07-22T12:29:10.343Z,7.00
2018-07-22T12:30:10.364Z,7.00
2018-07-22T12:31:10.316Z,7.00
2018-07-22T12:32:10.303Z,7.00
2018-07-22T12:33:10.359Z,7.00
2018-07-22T12:34:10.301Z,7.00
2018-07-22T12:35:10.303Z,8.00
2018-07-22T12:36:10.299Z,8.00
2018-07-22T12:37:10.302Z,8.00
2018-07-22T12:38:10.303Z,8.00
2018-07-22T12:39:10.299Z,9.00
2018-07-22T12:40:10.368Z,9.00
2018-07-22T12:41:10.368Z,9.00
2018-07-22T12:42:10.370Z,9.00
2018-07-22T12:43:10.369Z,9.00
2018-07-22T12:44:10.402Z,9.00
2018-07-22T12:45:10.404Z,9.00
2018-07-22T12:46:10.390Z,9.00
2018-07-22T12:47:10.350Z,9.00
2018-07-22T12:48:10.449Z,9.00
2018-07-22T12:49:10.373Z,9.00
2018-07-22T12:50:10.279Z,9.00
2018-07-22T12:51:10.353Z,9.00
2018-07-22T12:52:10.281Z,9.00
2018-07-22T12:53:10.333Z,9.00
2018-07-22T12:54:10.439Z,9.00
2018-07-22T12:55:10.422Z,9.00
2018-07-22T12:56:10.343Z,10.00
2018-07-22T12:57:10.421Z,10.00
2018-07-22T12:58:10.366Z,11.00
2018-07-22T12:59:10.424Z,11.00
2018-07-22T13:00:10.362Z,12.00
2018-07-22T13:01:10.330Z,13.00
2018-07-22T13:02:10.389Z,13.00
2018-07-22T13:03:10.402Z,13.00
2018-07-22T13:04:10.383Z,12.00
2018-07-22T13:05:10.419Z,12.00